| time (UTC) | temp F | wind direction | speed MPH | gust MPH | rain 1hr in | rain 24hr in | rain mn in | humidity % | barometer mb |
| 20260906125530 | 55 | 183 | 1.0 | 5.0 | 0.00 | 0.22 | 0.22 | 81 | 1014.5 |
| 20260906125030 | 55 | 90 | 2.0 | 5.0 | 0.00 | 0.22 | 0.22 | 81 | 1014.4 |
| 20260906124552 | 55 | 0 | 1.0 | 6.0 | 0.00 | 0.22 | 0.22 | 81 | 1014.3 |
| 20260906124030 | 55 | 0 | 0.0 | 6.0 | 0.00 | 0.22 | 0.22 | 84 | 1014.3 |
| 20260906123531 | 54 | 0 | 0.0 | 1.0 | 0.00 | 0.22 | 0.22 | 87 | 1014.3 |
| 20260906123051 | 54 | 0 | 0.0 | 1.0 | 0.00 | 0.22 | 0.22 | 87 | 1014.3 |
| 20260906122533 | 54 | 70 | 0.0 | 1.0 | 0.00 | 0.22 | 0.22 | 87 | 1014.3 |
| 20260906122031 | 54 | 0 | 0.0 | 0.0 | 0.00 | 0.22 | 0.22 | 88 | 1014.3 |
| 20260906121549 | 54 | 0 | 0.0 | 1.0 | 0.00 | 0.22 | 0.22 | 88 | 1014.3 |
| 20260906121031 | 54 | 0 | 0.0 | 1.0 | 0.00 | 0.22 | 0.22 | 87 | 1014.3 |
| 20260906120530 | 54 | 0 | 0.0 | 1.0 | 0.00 | 0.22 | 0.22 | 86 | 1014.3 |
| 20260906120059 | 55 | 0 | 0.0 | 4.0 | 0.00 | 0.22 | 0.22 | 83 | 1014.2 |
| 20260906115530 | 55 | 0 | 0.0 | 4.0 | 0.00 | 0.22 | 0.22 | 83 | 1014.1 |
| 20260906115029 | 55 | 0 | 1.0 | 5.0 | 0.00 | 0.22 | 0.22 | 82 | 1014.1 |
| 20260906114552 | 55 | 147 | 2.0 | 5.0 | 0.00 | 0.22 | 0.22 | 83 | 1013.9 |
| 20260906114033 | 55 | 200 | 1.0 | 9.0 | 0.00 | 0.22 | 0.22 | 86 | 1014.1 |
| 20260906113530 | 55 | 273 | 0.0 | 9.0 | 0.00 | 0.22 | 0.22 | 84 | 1014.0 |
| 20260906113051 | 55 | 0 | 2.0 | 6.0 | 0.00 | 0.22 | 0.22 | 82 | 1013.9 |
| 20260906112529 | 55 | 140 | 0.0 | 5.0 | 0.00 | 0.22 | 0.22 | 85 | 1013.9 |
| 20260906112031 | 56 | 185 | 0.0 | 3.0 | 0.00 | 0.22 | 0.22 | 85 | 1013.9 |
| 20260906111559 | 55 | 0 | 0.0 | 0.0 | 0.00 | 0.22 | 0.22 | 87 | 1014.1 |
| 20260906111030 | 55 | 0 | 0.0 | 2.0 | 0.00 | 0.22 | 0.22 | 87 | 1014.1 |
| 20260906110532 | 54 | 0 | 0.0 | 3.0 | 0.00 | 0.22 | 0.22 | 88 | 1014.0 |
| 20260906110056 | 54 | 28 | 0.0 | 5.0 | 0.00 | 0.22 | 0.22 | 89 | 1014.0 |
| 20260906105531 | 54 | 0 | 0.0 | 5.0 | 0.00 | 0.22 | 0.22 | 90 | 1014.0 |
| 20260906105030 | 53 | 261 | 0.0 | 4.0 | 0.00 | 0.22 | 0.22 | 89 | 1013.9 |
| 20260906104551 | 53 | 0 | 0.0 | 5.0 | 0.00 | 0.22 | 0.22 | 90 | 1013.9 |
| 20260906104030 | 53 | 0 | 1.0 | 5.0 | 0.00 | 0.22 | 0.22 | 90 | 1013.7 |
| 20260906103530 | 53 | 0 | 0.0 | 6.0 | 0.01 | 0.22 | 0.22 | 90 | 1013.7 |
| 20260906103052 | 52 | 127 | 1.0 | 6.0 | 0.01 | 0.22 | 0.22 | 89 | 1013.7 |
| 20260906102531 | 52 | 165 | 1.0 | 6.0 | 0.01 | 0.22 | 0.22 | 89 | 1013.6 |
| 20260906102030 | 52 | 130 | 0.0 | 8.0 | 0.01 | 0.22 | 0.22 | 90 | 1013.6 |
| 20260906101547 | 52 | 0 | 1.0 | 8.0 | 0.01 | 0.22 | 0.22 | 91 | 1013.6 |
| 20260906101030 | 52 | 148 | 0.0 | 5.0 | 0.01 | 0.22 | 0.22 | 91 | 1013.5 |
| 20260906100533 | 52 | 319 | 1.0 | 5.0 | 0.02 | 0.22 | 0.22 | 92 | 1013.6 |
| 20260906100054 | 52 | 96 | 2.0 | 5.0 | 0.02 | 0.22 | 0.22 | 92 | 1013.5 |
| 20260906095530 | 52 | 131 | 1.0 | 4.0 | 0.03 | 0.22 | 0.22 | 93 | 1013.5 |
| 20260906095030 | 52 | 144 | 1.0 | 8.0 | 0.03 | 0.22 | 0.22 | 93 | 1013.3 |
| 20260906094552 | 52 | 0 | 2.0 | 8.0 | 0.03 | 0.22 | 0.22 | 93 | 1013.3 |
| 20260906094050 | 52 | 130 | 1.0 | 5.0 | 0.02 | 0.21 | 0.21 | 94 | 1013.4 |
| 20260906093529 | 52 | 124 | 1.0 | 5.0 | 0.02 | 0.21 | 0.21 | 94 | 1013.4 |
| 20260906093058 | 52 | 154 | 1.0 | 7.0 | 0.02 | 0.21 | 0.21 | 94 | 1013.3 |
| 20260906092530 | 52 | 321 | 2.0 | 7.0 | 0.02 | 0.21 | 0.21 | 94 | 1013.3 |
| 20260906092032 | 52 | 136 | 3.0 | 8.0 | 0.02 | 0.21 | 0.21 | 94 | 1013.3 |
| 20260906091548 | 52 | 153 | 2.0 | 8.0 | 0.03 | 0.21 | 0.21 | 94 | 1013.1 |
| 20260906091030 | 52 | 14 | 3.0 | 9.0 | 0.03 | 0.21 | 0.21 | 93 | 1013.0 |
| 20260906090530 | 52 | 136 | 2.0 | 9.0 | 0.02 | 0.20 | 0.20 | 94 | 1012.9 |
| 20260906090108 | 52 | 217 | 3.0 | 8.0 | 0.02 | 0.20 | 0.20 | 94 | 1012.9 |
| 20260906085530 | 52 | 115 | 3.0 | 6.0 | 0.01 | 0.19 | 0.19 | 94 | 1012.9 |
| 20260906085030 | 52 | 107 | 2.0 | 7.0 | 0.01 | 0.19 | 0.19 | 94 | 1012.9 |
| 20260906084551 | 52 | 153 | 2.0 | 7.0 | 0.01 | 0.19 | 0.19 | 95 | 1012.8 |
| 20260906084031 | 52 | 167 | 2.0 | 9.0 | 0.01 | 0.19 | 0.19 | 95 | 1012.8 |
| 20260906083531 | 52 | 314 | 2.0 | 9.0 | 0.01 | 0.19 | 0.19 | 95 | 1012.8 |
| 20260906083050 | 52 | 139 | 2.0 | 8.0 | 0.01 | 0.19 | 0.19 | 95 | 1012.7 |
| 20260906082531 | 52 | 147 | 2.0 | 8.0 | 0.01 | 0.19 | 0.19 | 95 | 1012.7 |
| 20260906082028 | 52 | 319 | 2.0 | 8.0 | 0.01 | 0.19 | 0.19 | 95 | 1012.5 |
| 20260906081553 | 52 | 306 | 2.0 | 8.0 | 0.00 | 0.18 | 0.18 | 95 | 1012.6 |
| 20260906081031 | 52 | 164 | 2.0 | 6.0 | 0.00 | 0.18 | 0.18 | 95 | 1012.5 |
| 20260906080530 | 52 | 131 | 2.0 | 6.0 | 0.00 | 0.18 | 0.18 | 95 | 1012.4 |
| 20260906080058 | 52 | 179 | 2.0 | 8.0 | 0.00 | 0.18 | 0.18 | 95 | 1012.5 |
| 20260906075533 | 52 | 292 | 3.0 | 8.0 | 0.01 | 0.18 | 0.18 | 95 | 1012.5 |
| 20260906075030 | 52 | 124 | 2.0 | 6.0 | 0.01 | 0.18 | 0.18 | 95 | 1012.4 |
| 20260906074552 | 52 | 207 | 2.0 | 6.0 | 0.02 | 0.18 | 0.18 | 96 | 1012.2 |
| 20260906074033 | 51 | 218 | 2.0 | 6.0 | 0.03 | 0.18 | 0.18 | 96 | 1012.2 |
| 20260906073530 | 51 | 156 | 1.0 | 6.0 | 0.06 | 0.18 | 0.18 | 96 | 1012.3 |
| 20260906073049 | 51 | 167 | 2.0 | 6.0 | 0.07 | 0.18 | 0.18 | 95 | 1012.2 |
| 20260906072529 | 51 | 157 | 2.0 | 6.0 | 0.09 | 0.18 | 0.18 | 96 | 1012.2 |
| 20260906072032 | 51 | 136 | 2.0 | 6.0 | 0.10 | 0.18 | 0.18 | 96 | 1012.0 |
| 20260906071558 | 51 | 151 | 2.0 | 8.0 | 0.10 | 0.18 | 0.18 | 96 | 1012.0 |
| 20260906071031 | 51 | 138 | 3.0 | 8.0 | 0.10 | 0.18 | 0.18 | 96 | 1012.0 |
| 20260906070532 | 50 | 124 | 2.0 | 6.0 | 0.12 | 0.18 | 0.18 | 95 | 1011.9 |
| 20260906070058 | 50 | 128 | 2.0 | 6.0 | 0.12 | 0.18 | 0.18 | 95 | 1011.7 |
| 20260906065532 | 50 | 117 | 2.0 | 7.0 | 0.11 | 0.17 | 0.17 | 95 | 1011.8 |
| 20260906065032 | 50 | 132 | 2.0 | 7.0 | 0.11 | 0.17 | 0.17 | 95 | 1011.8 |
| 20260906064551 | 50 | 193 | 3.0 | 8.0 | 0.10 | 0.16 | 0.16 | 95 | 1011.8 |
| 20260906064029 | 50 | 131 | 4.0 | 9.0 | 0.09 | 0.15 | 0.15 | 95 | 1011.8 |
| 20260906063530 | 51 | 124 | 2.0 | 9.0 | 0.06 | 0.12 | 0.12 | 95 | 1011.8 |
| 20260906063050 | 51 | 133 | 2.0 | 6.0 | 0.05 | 0.11 | 0.11 | 95 | 1011.7 |
| 20260906062531 | 51 | 153 | 2.0 | 5.0 | 0.03 | 0.09 | 0.09 | 95 | 1011.8 |
| 20260906062030 | 51 | 120 | 2.0 | 7.0 | 0.02 | 0.08 | 0.08 | 95 | 1011.7 |
| 20260906061550 | 51 | 149 | 3.0 | 7.0 | 0.02 | 0.08 | 0.08 | 95 | 1011.7 |
| 20260906061030 | 51 | 181 | 2.0 | 5.0 | 0.02 | 0.08 | 0.08 | 95 | 1011.7 |
| 20260906060531 | 51 | 160 | 2.0 | 4.0 | 0.00 | 0.06 | 0.06 | 96 | 1011.7 |
| 20260906060059 | 51 | 153 | 1.0 | 3.0 | 0.00 | 0.06 | 0.06 | 96 | 1011.7 |
| 20260906055531 | 50 | 139 | 1.0 | 3.0 | 0.00 | 0.06 | 0.06 | 96 | 1011.7 |
| 20260906055030 | 50 | 0 | 0.0 | 1.0 | 0.00 | 0.06 | 0.06 | 96 | 1011.7 |
| 20260906054556 | 50 | 128 | 0.0 | 0.0 | 0.00 | 0.06 | 0.06 | 96 | 1011.7 |
| 20260906054030 | 50 | 0 | 0.0 | 1.0 | 0.00 | 0.06 | 0.06 | 95 | 1011.8 |
| 20260906053528 | 50 | 0 | 0.0 | 1.0 | 0.01 | 0.06 | 0.06 | 95 | 1011.8 |
| 20260906053051 | 50 | 0 | 0.0 | 1.0 | 0.01 | 0.06 | 0.06 | 95 | 1011.8 |
| 20260906052530 | 50 | 0 | 0.0 | 1.0 | 0.01 | 0.06 | 0.06 | 95 | 1011.7 |
| 20260906052030 | 50 | 0 | 0.0 | 1.0 | 0.01 | 0.06 | 0.06 | 95 | 1011.7 |
| 20260906051553 | 50 | 0 | 0.0 | 1.0 | 0.01 | 0.06 | 0.06 | 95 | 1011.6 |
| 20260906051031 | 50 | 129 | 0.0 | 1.0 | 0.01 | 0.06 | 0.06 | 95 | 1011.6 |
| 20260906050534 | 50 | 165 | 0.0 | 1.0 | 0.01 | 0.06 | 0.06 | 95 | 1011.4 |
| 20260906050111 | 50 | 0 | 0.0 | 2.0 | 0.01 | 0.06 | 0.06 | 95 | 1011.2 |
| 20260906045530 | 50 | 0 | 0.0 | 2.0 | 0.01 | 0.06 | 0.06 | 95 | 1011.3 |
| 20260906045030 | 50 | 0 | 0.0 | 3.0 | 0.01 | 0.06 | 0.06 | 95 | 1011.2 |
| 20260906044555 | 50 | 143 | 1.0 | 3.0 | 0.01 | 0.06 | 0.06 | 95 | 1011.1 |
| 20260906044033 | 50 | 122 | 1.0 | 3.0 | 0.01 | 0.06 | 0.06 | 95 | 1011.0 |
| 20260906043530 | 50 | 0 | 1.0 | 3.0 | 0.00 | 0.05 | 0.05 | 95 | 1011.0 |
| 20260906043101 | 50 | 134 | 1.0 | 3.0 | 0.00 | 0.05 | 0.05 | 95 | 1010.9 |
| 20260906042531 | 50 | 155 | 1.0 | 4.0 | 0.01 | 0.05 | 0.05 | 95 | 1010.9 |
| 20260906042030 | 50 | 142 | 0.0 | 4.0 | 0.01 | 0.05 | 0.05 | 95 | 1010.9 |
| 20260906041549 | 50 | 146 | 0.0 | 2.0 | 0.02 | 0.05 | 0.05 | 95 | 1010.9 |
| 20260906041027 | 50 | 0 | 0.0 | 0.0 | 0.03 | 0.05 | 0.05 | 95 | 1010.8 |
| 20260906040528 | 50 | 0 | 0.0 | 0.0 | 0.04 | 0.05 | 0.05 | 95 | 1010.8 |
| 20260906040059 | 50 | 0 | 0.0 | 0.0 | 0.05 | 0.05 | 0.05 | 95 | 1010.8 |
| 20260906035530 | 50 | 0 | 0.0 | 1.0 | 0.05 | 0.05 | 0.05 | 94 | 1010.8 |
| 20260906035030 | 50 | 141 | 0.0 | 2.0 | 0.05 | 0.05 | 0.05 | 94 | 1010.7 |
| 20260906034553 | 50 | 0 | 0.0 | 3.0 | 0.05 | 0.05 | 0.05 | 94 | 1010.7 |
| 20260906034030 | 51 | 0 | 1.0 | 3.0 | 0.05 | 0.05 | 0.05 | 94 | 1010.7 |
| 20260906033529 | 51 | 0 | 1.0 | 3.0 | 0.05 | 0.05 | 0.05 | 94 | 1010.8 |
| 20260906033049 | 51 | 146 | 0.0 | 3.0 | 0.05 | 0.05 | 0.05 | 94 | 1010.7 |
| 20260906032530 | 51 | 147 | 1.0 | 4.0 | 0.04 | 0.04 | 0.04 | 94 | 1010.8 |
| 20260906032028 | 51 | 139 | 0.0 | 4.0 | 0.03 | 0.03 | 0.03 | 93 | 1010.8 |
| 20260906031556 | 51 | 107 | 0.0 | 4.0 | 0.03 | 0.03 | 0.03 | 93 | 1010.8 |
| 20260906031031 | 51 | 131 | 1.0 | 4.0 | 0.02 | 0.02 | 0.02 | 93 | 1010.8 |
| 20260906030533 | 51 | 0 | 0.0 | 1.0 | 0.01 | 0.01 | 0.01 | 92 | 1010.8 |
| 20260906030107 | 51 | 0 | 0.0 | 1.0 | 0.00 | 0.00 | 0.00 | 92 | 1010.7 |
| 20260906025530 | 50 | 0 | 0.0 | 1.0 | 0.00 | 0.00 | 0.00 | 92 | 1010.6 |
| 20260906025031 | 50 | 0 | 0.0 | 1.0 | 0.00 | 0.00 | 0.00 | 92 | 1010.6 |
| 20260906024550 | 50 | 0 | 0.0 | 0.0 | 0.00 | 0.00 | 0.00 | 92 | 1010.6 |
| 20260906024028 | 50 | 0 | 0.0 | 0.0 | 0.00 | 0.00 | 0.00 | 92 | 1010.5 |
| 20260906023533 | 50 | 0 | 0.0 | 1.0 | 0.00 | 0.00 | 0.00 | 92 | 1010.5 |
| 20260906023112 | 50 | 164 | 0.0 | 1.0 | 0.00 | 0.00 | 0.00 | 91 | 1010.3 |
| 20260906022529 | 50 | 0 | 0.0 | 1.0 | 0.00 | 0.00 | 0.00 | 91 | 1010.4 |
| 20260906022031 | 50 | 0 | 0.0 | 2.0 | 0.00 | 0.00 | 0.00 | 92 | 1010.4 |
| 20260906021607 | 50 | 0 | 0.0 | 2.0 | 0.00 | 0.00 | 0.00 | 91 | 1010.3 |
| 20260906021030 | 50 | 145 | 0.0 | 2.0 | 0.00 | 0.00 | 0.00 | 91 | 1010.2 |
| 20260906020531 | 50 | 0 | 0.0 | 1.0 | 0.00 | 0.00 | 0.00 | 91 | 1010.2 |
| 20260906020053 | 50 | 0 | 0.0 | 1.0 | 0.00 | 0.00 | 0.00 | 91 | 1010.2 |
| 20260906015529 | 50 | 0 | 0.0 | 1.0 | 0.00 | 0.00 | 0.00 | 91 | 1010.1 |
| 20260906015028 | 50 | 0 | 0.0 | 1.0 | 0.00 | 0.00 | 0.00 | 90 | 1010.2 |
| 20260906014554 | 50 | 0 | 0.0 | 0.0 | 0.00 | 0.00 | 0.00 | 90 | 1010.1 |
| 20260906014027 | 50 | 0 | 0.0 | 0.0 | 0.00 | 0.00 | 0.00 | 89 | 1010.1 |
| 20260906013530 | 51 | 0 | 0.0 | 0.0 | 0.00 | 0.00 | 0.00 | 89 | 1010.1 |
| 20260906013052 | 51 | 0 | 0.0 | 3.0 | 0.00 | 0.00 | 0.00 | 88 | 1010.1 |
| 20260906012529 | 51 | 0 | 0.0 | 3.0 | 0.00 | 0.00 | 0.00 | 88 | 1010.0 |
| 20260906012030 | 51 | 118 | 0.0 | 2.0 | 0.00 | 0.00 | 0.00 | 88 | 1010.0 |
| 20260906011550 | 51 | 147 | 0.0 | 4.0 | 0.00 | 0.00 | 0.00 | 88 | 1009.8 |
| 20260906011031 | 51 | 0 | 0.0 | 4.0 | 0.00 | 0.00 | 0.00 | 88 | 1009.8 |
| 20260906010528 | 51 | 0 | 1.0 | 4.0 | 0.00 | 0.00 | 0.00 | 88 | 1009.8 |
| 20260906010050 | 51 | 148 | 1.0 | 4.0 | 0.00 | 0.00 | 0.00 | 89 | 1009.8 |
| 20260906005533 | 51 | 136 | 1.0 | 4.0 | 0.00 | 0.00 | 0.00 | 89 | 1009.8 |
| 20260906005028 | 51 | 0 | 0.0 | 4.0 | 0.00 | 0.00 | 0.00 | 89 | 1009.8 |
| 20260906004559 | 51 | 135 | 1.0 | 4.0 | 0.00 | 0.00 | 0.00 | 89 | 1009.7 |
| 20260906004032 | 51 | 143 | 1.0 | 6.0 | 0.00 | 0.00 | 0.00 | 89 | 1009.7 |
| 20260906003528 | 51 | 128 | 1.0 | 6.0 | 0.00 | 0.00 | 0.00 | 88 | 1009.6 |
| 20260906003104 | 51 | 148 | 1.0 | 3.0 | 0.00 | 0.00 | 0.00 | 88 | 1009.5 |
| 20260906002528 | 51 | 109 | 0.0 | 3.0 | 0.00 | 0.00 | 0.00 | 89 | 1009.4 |
| 20260906002031 | 51 | 146 | 1.0 | 4.0 | 0.00 | 0.00 | 0.00 | 89 | 1009.4 |
| 20260906001550 | 51 | 0 | 0.0 | 4.0 | 0.00 | 0.00 | 0.00 | 89 | 1009.4 |
| 20260906001030 | 51 | 0 | 1.0 | 4.0 | 0.00 | 0.00 | 0.00 | 89 | 1009.3 |
| 20260906000533 | 51 | 161 | 0.0 | 3.0 | 0.00 | 0.00 | 0.00 | 89 | 1009.2 |
| 20260906000049 | 51 | 0 | 0.0 | 3.0 | 0.00 | 0.00 | 0.00 | 89 | 1009.3 |
| 20260905235530 | 51 | 122 | 1.0 | 3.0 | 0.00 | 0.00 | 0.00 | 89 | 1009.3 |
| 20260905235033 | 51 | 146 | 0.0 | 3.0 | 0.00 | 0.00 | 0.00 | 90 | 1009.3 |
| 20260905234612 | 50 | 249 | 0.0 | 4.0 | 0.00 | 0.00 | 0.00 | 90 | 1009.2 |
| 20260905234030 | 50 | 115 | 0.0 | 4.0 | 0.00 | 0.00 | 0.00 | 90 | 1009.2 |
| 20260905233530 | 50 | 162 | 1.0 | 3.0 | 0.00 | 0.00 | 0.00 | 90 | 1009.2 |
| 20260905233053 | 50 | 134 | 0.0 | 3.0 | 0.00 | 0.00 | 0.00 | 91 | 1009.2 |
| 20260905232532 | 50 | 142 | 0.0 | 4.0 | 0.00 | 0.00 | 0.00 | 91 | 1009.2 |
| 20260905232033 | 50 | 136 | 0.0 | 4.0 | 0.00 | 0.00 | 0.00 | 91 | 1009.1 |
| 20260905231600 | 49 | 134 | 0.0 | 2.0 | 0.00 | 0.00 | 0.00 | 91 | 1009.2 |
| 20260905231033 | 49 | 0 | 0.0 | 2.0 | 0.00 | 0.00 | 0.00 | 91 | 1009.3 |
| 20260905230532 | 50 | 140 | 0.0 | 2.0 | 0.00 | 0.00 | 0.00 | 90 | 1009.2 |
| 20260905225533 | 50 | 0 | 0.0 | 4.0 | 0.00 | 0.00 | 0.00 | 90 | 1009.2 |
| 20260905225030 | 50 | 150 | 0.0 | 4.0 | 0.00 | 0.00 | 0.00 | 90 | 1009.0 |
| 20260905224551 | 50 | 168 | 1.0 | 4.0 | 0.00 | 0.00 | 0.00 | 90 | 1009.0 |
| 20260905224032 | 50 | 150 | 0.0 | 2.0 | 0.00 | 0.00 | 0.00 | 90 | 1009.2 |
| 20260905223531 | 49 | 111 | 1.0 | 2.0 | 0.00 | 0.00 | 0.00 | 91 | 1009.1 |
| 20260905223100 | 49 | 129 | 0.0 | 2.0 | 0.00 | 0.00 | 0.00 | 91 | 1009.1 |
| 20260905222532 | 49 | 0 | 0.0 | 0.0 | 0.00 | 0.00 | 0.00 | 91 | 1009.1 |
| 20260905222031 | 49 | 0 | 0.0 | 0.0 | 0.00 | 0.00 | 0.00 | 91 | 1009.1 |
| 20260905221600 | 49 | 0 | 0.0 | 0.0 | 0.00 | 0.00 | 0.00 | 90 | 1009.0 |
| 20260905221030 | 49 | 0 | 0.0 | 0.0 | 0.00 | 0.00 | 0.00 | 90 | 1009.0 |
| 20260905220531 | 49 | 0 | 0.0 | 0.0 | 0.00 | 0.00 | 0.00 | 90 | 1008.9 |
| 20260905220055 | 49 | 0 | 0.0 | 4.0 | 0.00 | 0.00 | 0.00 | 90 | 1008.8 |
| 20260905215530 | 49 | 0 | 0.0 | 4.0 | 0.00 | 0.00 | 0.00 | 90 | 1008.9 |
| 20260905215029 | 50 | 146 | 1.0 | 4.0 | 0.00 | 0.00 | 0.00 | 90 | 1008.9 |
| 20260905214602 | 50 | 146 | 1.0 | 4.0 | 0.00 | 0.00 | 0.00 | 90 | 1008.7 |
| 20260905214031 | 50 | 168 | 1.0 | 3.0 | 0.00 | 0.00 | 0.00 | 91 | 1008.7 |
| 20260905213532 | 49 | 120 | 1.0 | 3.0 | 0.00 | 0.00 | 0.00 | 91 | 1008.6 |
| 20260905213050 | 49 | 158 | 1.0 | 3.0 | 0.00 | 0.00 | 0.00 | 91 | 1008.5 |
| 20260905212532 | 49 | 136 | 1.0 | 3.0 | 0.00 | 0.00 | 0.00 | 91 | 1008.3 |
| 20260905212034 | 49 | 158 | 0.0 | 3.0 | 0.00 | 0.00 | 0.00 | 91 | 1008.3 |
| 20260905211601 | 49 | 150 | 0.0 | 2.0 | 0.00 | 0.00 | 0.00 | 91 | 1008.2 |
| 20260905211030 | 49 | 0 | 0.0 | 2.0 | 0.00 | 0.00 | 0.00 | 91 | 1008.3 |
| 20260905210533 | 49 | 0 | 0.0 | 2.0 | 0.00 | 0.00 | 0.00 | 91 | 1008.1 |
| 20260905210055 | 49 | 147 | 0.0 | 2.0 | 0.00 | 0.00 | 0.00 | 91 | 1008.1 |
| 20260905205530 | 49 | 146 | 0.0 | 1.0 | 0.00 | 0.00 | 0.00 | 91 | 1007.9 |
| 20260905205030 | 49 | 0 | 0.0 | 0.0 | 0.00 | 0.00 | 0.00 | 90 | 1008.0 |
| 20260905204549 | 49 | 0 | 0.0 | 0.0 | 0.00 | 0.00 | 0.00 | 90 | 1007.9 |
| 20260905204031 | 50 | 0 | 0.0 | 1.0 | 0.00 | 0.00 | 0.00 | 89 | 1007.9 |
| 20260905203535 | 50 | 0 | 0.0 | 2.0 | 0.00 | 0.00 | 0.00 | 89 | 1007.8 |
| 20260905203058 | 50 | 0 | 0.0 | 2.0 | 0.00 | 0.00 | 0.00 | 88 | 1007.8 |
| 20260905202532 | 51 | 0 | 0.0 | 2.0 | 0.00 | 0.00 | 0.00 | 87 | 1007.6 |
| 20260905202034 | 51 | 0 | 0.0 | 2.0 | 0.00 | 0.00 | 0.00 | 87 | 1007.6 |
| 20260905201603 | 51 | 145 | 0.0 | 4.0 | 0.00 | 0.00 | 0.00 | 87 | 1007.6 |
| 20260905201032 | 51 | 0 | 0.0 | 4.0 | 0.00 | 0.00 | 0.00 | 87 | 1007.5 |
| 20260905200533 | 51 | 0 | 0.0 | 3.0 | 0.00 | 0.00 | 0.00 | 87 | 1007.6 |
| 20260905200057 | 51 | 25 | 0.0 | 2.0 | 0.00 | 0.00 | 0.00 | 88 | 1007.5 |
| 20260905195530 | 51 | 0 | 0.0 | 0.0 | 0.00 | 0.00 | 0.00 | 89 | 1007.5 |
| 20260905195030 | 51 | 0 | 0.0 | 1.0 | 0.00 | 0.00 | 0.00 | 90 | 1007.4 |
| 20260905194602 | 51 | 0 | 0.0 | 1.0 | 0.00 | 0.00 | 0.00 | 90 | 1007.4 |
| 20260905194033 | 51 | 0 | 0.0 | 1.0 | 0.00 | 0.00 | 0.00 | 90 | 1007.4 |
| 20260905193531 | 51 | 0 | 0.0 | 1.0 | 0.00 | 0.00 | 0.00 | 90 | 1007.3 |
| 20260905193057 | 51 | 161 | 0.0 | 0.0 | 0.00 | 0.00 | 0.00 | 90 | 1007.2 |
| 20260905192532 | 52 | 0 | 0.0 | 1.0 | 0.00 | 0.00 | 0.00 | 89 | 1007.2 |
| 20260905192034 | 52 | 0 | 0.0 | 1.0 | 0.00 | 0.00 | 0.00 | 89 | 1007.2 |
| 20260905191612 | 52 | 0 | 0.0 | 1.0 | 0.00 | 0.00 | 0.00 | 89 | 1007.1 |
| 20260905191031 | 52 | 0 | 0.0 | 0.0 | 0.00 | 0.00 | 0.00 | 90 | 1007.1 |
| 20260905190533 | 52 | 0 | 0.0 | 0.0 | 0.00 | 0.00 | 0.00 | 90 | 1007.0 |
| 20260905190054 | 52 | 0 | 0.0 | 0.0 | 0.00 | 0.00 | 0.00 | 89 | 1007.0 |
| 20260905185533 | 52 | 0 | 0.0 | 0.0 | 0.00 | 0.00 | 0.00 | 90 | 1006.9 |
| 20260905185033 | 52 | 0 | 0.0 | 0.0 | 0.00 | 0.00 | 0.00 | 90 | 1006.8 |
| 20260905184605 | 53 | 0 | 0.0 | 1.0 | 0.00 | 0.00 | 0.00 | 89 | 1006.8 |
| 20260905184035 | 53 | 0 | 0.0 | 1.0 | 0.00 | 0.00 | 0.00 | 88 | 1006.7 |
| 20260905183535 | 53 | 0 | 0.0 | 1.0 | 0.00 | 0.00 | 0.00 | 88 | 1006.7 |
| 20260905183102 | 53 | 0 | 0.0 | 2.0 | 0.00 | 0.00 | 0.00 | 87 | 1006.6 |
| 20260905182533 | 53 | 0 | 0.0 | 2.0 | 0.00 | 0.00 | 0.00 | 87 | 1006.7 |
| 20260905182032 | 54 | 0 | 0.0 | 1.0 | 0.00 | 0.00 | 0.00 | 87 | 1006.6 |
| 20260905181555 | 54 | 0 | 0.0 | 1.0 | 0.00 | 0.00 | 0.00 | 86 | 1006.4 |
| 20260905181031 | 54 | 0 | 0.0 | 1.0 | 0.00 | 0.00 | 0.00 | 86 | 1006.4 |
| 20260905180532 | 55 | 0 | 0.0 | 3.0 | 0.00 | 0.00 | 0.00 | 86 | 1006.2 |
| 20260905180053 | 55 | 0 | 0.0 | 3.0 | 0.00 | 0.00 | 0.00 | 85 | 1006.2 |
| 20260905175530 | 55 | 0 | 0.0 | 0.0 | 0.00 | 0.00 | 0.00 | 85 | 1006.1 |
| 20260905175031 | 55 | 0 | 0.0 | 1.0 | 0.00 | 0.00 | 0.00 | 84 | 1006.2 |
| 20260905174554 | 55 | 0 | 0.0 | 2.0 | 0.00 | 0.00 | 0.00 | 84 | 1006.1 |
| 20260905174031 | 55 | 65 | 0.0 | 4.0 | 0.00 | 0.00 | 0.00 | 83 | 1006.2 |
| 20260905173530 | 55 | 0 | 0.0 | 4.0 | 0.00 | 0.00 | 0.00 | 83 | 1006.0 |
| 20260905173053 | 55 | 49 | 0.0 | 4.0 | 0.00 | 0.00 | 0.00 | 83 | 1005.9 |
| 20260905172530 | 56 | 0 | 0.0 | 1.0 | 0.00 | 0.00 | 0.00 | 82 | 1005.7 |
| 20260905172032 | 56 | 0 | 0.0 | 1.0 | 0.00 | 0.00 | 0.00 | 82 | 1005.6 |
| 20260905171556 | 56 | 0 | 0.0 | 1.0 | 0.00 | 0.00 | 0.00 | 82 | 1005.4 |
| 20260905171030 | 56 | 0 | 0.0 | 2.0 | 0.00 | 0.00 | 0.00 | 82 | 1005.4 |
| 20260905170529 | 56 | 0 | 0.0 | 2.0 | 0.00 | 0.00 | 0.00 | 83 | 1005.3 |
| 20260905170052 | 56 | 0 | 0.0 | 1.0 | 0.00 | 0.00 | 0.00 | 82 | 1005.3 |
| 20260905165529 | 56 | 0 | 0.0 | 4.0 | 0.00 | 0.00 | 0.00 | 81 | 1005.3 |
| 20260905165030 | 56 | 0 | 0.0 | 4.0 | 0.00 | 0.00 | 0.00 | 80 | 1005.1 |
| 20260905164552 | 56 | 0 | 0.0 | 2.0 | 0.00 | 0.00 | 0.00 | 80 | 1005.0 |
| 20260905164030 | 56 | 0 | 0.0 | 1.0 | 0.00 | 0.00 | 0.00 | 81 | 1004.8 |
| 20260905163530 | 57 | 0 | 0.0 | 1.0 | 0.00 | 0.00 | 0.00 | 80 | 1004.8 |
| 20260905163052 | 57 | 0 | 0.0 | 5.0 | 0.00 | 0.00 | 0.00 | 80 | 1004.7 |
| 20260905162535 | 57 | 0 | 0.0 | 5.0 | 0.00 | 0.00 | 0.00 | 80 | 1004.6 |
| 20260905162030 | 57 | 323 | 1.0 | 5.0 | 0.00 | 0.00 | 0.00 | 79 | 1004.6 |
| 20260905161548 | 57 | 333 | 0.0 | 6.0 | 0.00 | 0.00 | 0.00 | 79 | 1004.5 |
| 20260905161030 | 57 | 167 | 0.0 | 6.0 | 0.00 | 0.00 | 0.00 | 79 | 1004.4 |
| 20260905160530 | 58 | 0 | 0.0 | 4.0 | 0.00 | 0.00 | 0.00 | 78 | 1004.3 |
| 20260905160057 | 58 | 137 | 0.0 | 4.0 | 0.00 | 0.00 | 0.00 | 77 | 1004.2 |
| 20260905155531 | 58 | 74 | 1.0 | 9.0 | 0.00 | 0.00 | 0.00 | 77 | 1004.0 |
| 20260905155031 | 58 | 167 | 1.0 | 9.0 | 0.00 | 0.00 | 0.00 | 77 | 1003.9 |
| 20260905154555 | 58 | 204 | 1.0 | 6.0 | 0.00 | 0.00 | 0.00 | 76 | 1003.8 |
| 20260905154032 | 58 | 272 | 1.0 | 6.0 | 0.00 | 0.00 | 0.00 | 77 | 1003.7 |
| 20260905153531 | 58 | 91 | 1.0 | 6.0 | 0.00 | 0.00 | 0.00 | 76 | 1003.6 |
| 20260905153054 | 58 | 55 | 2.0 | 7.0 | 0.00 | 0.00 | 0.00 | 76 | 1003.6 |
| 20260905152533 | 58 | 146 | 1.0 | 7.0 | 0.00 | 0.00 | 0.00 | 76 | 1003.5 |
| 20260905152033 | 58 | 98 | 1.0 | 7.0 | 0.00 | 0.00 | 0.00 | 77 | 1003.5 |
| 20260905151555 | 58 | 34 | 1.0 | 7.0 | 0.00 | 0.00 | 0.00 | 76 | 1003.4 |
| 20260905151032 | 58 | 176 | 1.0 | 7.0 | 0.00 | 0.00 | 0.00 | 75 | 1003.4 |
| 20260905150532 | 58 | 125 | 1.0 | 7.0 | 0.00 | 0.00 | 0.00 | 74 | 1003.4 |
| 20260905150058 | 58 | 78 | 1.0 | 4.0 | 0.00 | 0.00 | 0.00 | 73 | 1003.3 |
| 20260905145531 | 58 | 174 | 0.0 | 0.0 | 0.00 | 0.00 | 0.00 | 72 | 1003.3 |
| 20260905145030 | 59 | 0 | 0.0 | 7.0 | 0.00 | 0.00 | 0.00 | 71 | 1003.2 |
| 20260905144552 | 59 | 0 | 0.0 | 7.0 | 0.00 | 0.00 | 0.00 | 71 | 1003.2 |
| 20260905144028 | 59 | 345 | 1.0 | 9.0 | 0.00 | 0.00 | 0.00 | 69 | 1003.0 |
| 20260905143530 | 60 | 70 | 1.0 | 9.0 | 0.00 | 0.00 | 0.00 | 69 | 1003.0 |
| 20260905143049 | 60 | 110 | 2.0 | 5.0 | 0.00 | 0.00 | 0.00 | 68 | 1002.7 |
| 20260905142532 | 61 | 68 | 1.0 | 5.0 | 0.00 | 0.00 | 0.00 | 65 | 1002.8 |
| 20260905142033 | 61 | 37 | 1.0 | 9.0 | 0.00 | 0.00 | 0.00 | 64 | 1002.7 |
| 20260905141610 | 61 | 63 | 1.0 | 9.0 | 0.00 | 0.00 | 0.00 | 63 | 1002.6 |
| 20260905141031 | 61 | 152 | 2.0 | 7.0 | 0.00 | 0.00 | 0.00 | 62 | 1002.5 |
| 20260905140532 | 61 | 141 | 1.0 | 7.0 | 0.00 | 0.00 | 0.00 | 63 | 1002.5 |
| 20260905140059 | 61 | 37 | 1.0 | 4.0 | 0.00 | 0.00 | 0.00 | 62 | 1002.5 |
| 20260905135532 | 62 | 210 | 1.0 | 4.0 | 0.00 | 0.00 | 0.00 | 60 | 1002.4 |
| 20260905135029 | 62 | 236 | 0.0 | 3.0 | 0.00 | 0.00 | 0.00 | 63 | 1002.3 |
| 20260905134604 | 62 | 130 | 1.0 | 4.0 | 0.00 | 0.00 | 0.00 | 62 | 1002.2 |
| 20260905134030 | 62 | 0 | 0.0 | 5.0 | 0.00 | 0.00 | 0.00 | 68 | 1002.2 |
| 20260905133533 | 62 | 188 | 1.0 | 5.0 | 0.00 | 0.00 | 0.00 | 66 | 1002.0 |
| 20260905133055 | 62 | 0 | 1.0 | 4.0 | 0.00 | 0.00 | 0.00 | 66 | 1001.8 |
| 20260905132530 | 63 | 112 | 0.0 | 4.0 | 0.00 | 0.00 | 0.00 | 65 | 1001.8 |
| 20260905132030 | 62 | 18 | 1.0 | 4.0 | 0.00 | 0.00 | 0.00 | 65 | 1001.7 |
| 20260905131555 | 62 | 163 | 0.0 | 4.0 | 0.00 | 0.00 | 0.00 | 62 | 1001.8 |
| 20260905131034 | 62 | 0 | 0.0 | 4.0 | 0.00 | 0.00 | 0.00 | 65 | 1001.7 |
| 20260905130529 | 61 | 66 | 0.0 | 2.0 | 0.00 | 0.00 | 0.00 | 66 | 1001.6 |
| 20260905130055 | 61 | 299 | 0.0 | 3.0 | 0.00 | 0.00 | 0.00 | 66 | 1001.7 |